Flight Number: AVA1760 Duration: 2:20
Departure: Tallinn Airport (EETN) at 20:00 Distance: 794.129 Nm
Arrival: Frankfurt am Main (EDDF) at 22:20 Equipment: B737

Weather Information
Tallinn, Estonia (EETN) 59-24N 024-49E 34M Jan 16, 2021 - 12:20 PM EST / 2021.01.16 1720 UTC
Wind: Variable at 1 MPH (1 KT):0
Visibility: 4 mile(s):0
Sky conditions: overcast Weather: light snow Temperature: 12 F (-11 C) Dew Point: 10 F (-12 C) Relative Humidity: 92% Pressure (altimeter): 30.09 in. Hg (1019 hPa)
ob: EETN 161720Z VRB01KT 7000 -SN OVC015 M11/M12 Q1019 R08/490395 NOSIG cycle: 17
Sunrise: 07:07 Sunset: 13:54 (UTC)

Frankfurt / M-Flughafen, Germany (EDDF) 50-03N 008-36E 113M Jan 16, 2021 - 12:20 PM EST / 2021.01.16 1720 UTC
Wind: from the SSE (150 degrees) at 5 MPH (4 KT):0
Visibility: greater than 7 mile(s):0
Sky conditions: partly cloudy Temperature: 30 F (-1 C)
Windchill: 24 F (-4 C):1 Dew Point: 21 F (-6 C) Relative Humidity: 68% Pressure (altimeter): 30.18 in. Hg (1022 hPa)
ob: EDDF 161720Z 15004KT 9999 SCT033 M01/M06 Q1022 NOSIG cycle: 17
Sunrise: 07:21 Sunset: 15:50 (UTC)

TAF:2021/01/16 18:27 TAF TAF EDDF 161700Z 1618/1724 18007KT 9999 BKN025 BECMG 1620/1622 4000 -SN BR BKN005 TEMPO 1621/1701 1000 SN BKN003 TEMPO 1701/1711 2000 -SN BR BKN003 BECMG 1708/1711 24006KT BECMG 1711/1713 5000 BKN010 TEMPO 1715/1724 3000 -DZ BR BKN003

Previous Pireps for this route
Date Aircraft Flight time Fuel used Landing rate On time
2016-04-15A32102.1512892-605Yes
(pireps marked green are flown by you)

Route map